Time,TemperatureF,DewpointF,PressureIn,WindDirection,WindDirectionDegrees,WindSpeedMPH,WindSpeedGustMPH,Humidity,HourlyPrecipIn,Conditions,Clouds,dailyrainin,SoftwareType,DateUTC
2013-11-03 00:13:00,45.2,41.0,30.18,NE,44,0.0,0.0,84,0.00,,,0.00,weatherlink.com 1.10,2013-11-03 05:13:00,
2013-11-03 00:28:00,44.9,40.0,30.17,NE,44,0.0,0.0,84,0.00,,,0.00,weatherlink.com 1.10,2013-11-03 05:28:00,
2013-11-03 00:43:00,44.5,40.0,30.17,NE,44,0.0,0.0,85,0.00,,,0.00,weatherlink.com 1.10,2013-11-03 05:43:00,
2013-11-03 00:58:00,44.0,40.0,30.16,NE,44,0.0,0.0,86,0.00,,,0.00,weatherlink.com 1.10,2013-11-03 05:58:00,
2013-11-03 01:13:00,43.6,40.0,30.16,NE,44,0.0,0.0,87,0.00,,,0.00,weatherlink.com 1.10,2013-11-03 06:13:00,
2013-11-03 01:28:00,43.3,39.0,30.16,NE,44,0.0,0.0,86,0.00,,,0.00,weatherlink.com 1.10,2013-11-03 06:28:00,
2013-11-03 01:43:00,43.5,40.0,30.16,NE,44,0.0,0.0,87,0.00,,,0.00,weatherlink.com 1.10,2013-11-03 06:43:00,
2013-11-03 01:58:00,43.5,39.0,30.15,NE,44,0.0,0.0,84,0.00,,,0.00,weatherlink.com 1.10,2013-11-03 06:58:00,
2013-11-03 01:13:00,43.1,39.0,30.14,NE,44,0.0,0.0,85,0.00,,,0.00,weatherlink.com 1.10,2013-11-03 07:13:00,
2013-11-03 01:28:00,43.0,39.0,30.14,NE,44,0.0,1.0,87,0.00,,,0.00,weatherlink.com 1.10,2013-11-03 07:28:00,
2013-11-03 01:43:00,43.0,39.0,30.14,NE,44,0.0,0.0,86,0.00,,,0.00,weatherlink.com 1.10,2013-11-03 07:43:00,
2013-11-03 01:58:00,42.8,39.0,30.14,NE,44,0.0,0.0,87,0.00,,,0.00,weatherlink.com 1.10,2013-11-03 07:58:00,
2013-11-03 02:13:00,42.3,39.0,30.14,NE,44,0.0,0.0,87,0.00,,,0.00,weatherlink.com 1.10,2013-11-03 08:13:00,
2013-11-03 02:28:00,41.8,39.0,30.13,NE,44,0.0,0.0,88,0.00,,,0.00,weatherlink.com 1.10,2013-11-03 08:28:00,
2013-11-03 02:43:00,41.4,38.0,30.14,NE,44,0.0,0.0,89,0.00,,,0.00,weatherlink.com 1.10,2013-11-03 08:43:00,
2013-11-03 02:58:00,41.2,39.0,30.13,NE,44,0.0,0.0,90,0.00,,,0.00,weatherlink.com 1.10,2013-11-03 08:58:00,
2013-11-03 03:13:00,41.8,39.0,30.13,NE,44,0.0,0.0,88,0.00,,,0.00,weatherlink.com 1.10,2013-11-03 09:13:00,
2013-11-03 03:28:00,41.8,39.0,30.13,NE,44,0.0,0.0,88,0.00,,,0.00,weatherlink.com 1.10,2013-11-03 09:28:00,
2013-11-03 03:43:00,41.5,38.0,30.13,NE,44,0.0,0.0,88,0.00,,,0.00,weatherlink.com 1.10,2013-11-03 09:43:00,
2013-11-03 03:58:00,40.7,38.0,30.12,NE,44,0.0,0.0,88,0.00,,,0.00,weatherlink.com 1.10,2013-11-03 09:58:00,
2013-11-03 04:13:00,40.1,37.0,30.12,NE,44,0.0,0.0,89,0.00,,,0.00,weatherlink.com 1.10,2013-11-03 10:13:00,
2013-11-03 04:28:00,39.7,37.0,30.11,NE,44,0.0,0.0,90,0.00,,,0.00,weatherlink.com 1.10,2013-11-03 10:28:00,
2013-11-03 04:43:00,39.5,37.0,30.11,NE,44,0.0,0.0,91,0.00,,,0.00,weatherlink.com 1.10,2013-11-03 10:43:00,
2013-11-03 04:58:00,39.3,37.0,30.11,NE,44,0.0,0.0,91,0.00,,,0.00,weatherlink.com 1.10,2013-11-03 10:58:00,
2013-11-03 05:13:00,39.4,37.0,30.12,NE,44,0.0,0.0,92,0.00,,,0.00,weatherlink.com 1.10,2013-11-03 11:13:00,
2013-11-03 05:28:00,39.4,37.0,30.11,NE,44,0.0,0.0,92,0.00,,,0.00,weatherlink.com 1.10,2013-11-03 11:28:00,
2013-11-03 05:43:00,39.2,37.0,30.12,NE,44,0.0,0.0,92,0.00,,,0.00,weatherlink.com 1.10,2013-11-03 11:43:00,
2013-11-03 05:58:00,39.0,37.0,30.11,NE,44,0.0,1.0,92,0.00,,,0.00,weatherlink.com 1.10,2013-11-03 11:58:00,
2013-11-03 06:13:00,39.3,37.0,30.11,NE,44,0.0,0.0,92,0.00,,,0.00,weatherlink.com 1.10,2013-11-03 12:13:00,
2013-11-03 06:28:00,39.4,37.0,30.11,NE,44,0.0,0.0,91,0.00,,,0.00,weatherlink.com 1.10,2013-11-03 12:28:00,
2013-11-03 06:43:00,40.0,37.0,30.11,NE,44,0.0,0.0,90,0.00,,,0.00,weatherlink.com 1.10,2013-11-03 12:43:00,
2013-11-03 06:58:00,40.2,37.0,30.11,NE,44,0.0,1.0,89,0.00,,,0.00,weatherlink.com 1.10,2013-11-03 12:58:00,
2013-11-03 07:13:00,42.1,38.0,30.11,NE,44,0.0,1.0,85,0.00,,,0.00,weatherlink.com 1.10,2013-11-03 13:13:00,
2013-11-03 07:28:00,43.7,39.0,30.11,NE,44,0.0,0.0,82,0.00,,,0.00,weatherlink.com 1.10,2013-11-03 13:28:00,
2013-11-03 07:43:00,45.3,40.0,30.11,NE,44,0.0,1.0,80,0.00,,,0.00,weatherlink.com 1.10,2013-11-03 13:43:00,
2013-11-03 07:58:00,48.0,40.0,30.12,NE,44,0.0,2.0,75,0.00,,,0.00,weatherlink.com 1.10,2013-11-03 13:58:00,
2013-11-03 08:14:00,50.2,41.0,30.12,NE,44,1.0,3.0,72,0.00,,,0.00,weatherlink.com 1.10,2013-11-03 14:14:00,
2013-11-03 08:29:00,51.8,41.0,30.12,NE,44,0.0,3.0,67,0.00,,,0.00,weatherlink.com 1.10,2013-11-03 14:29:00,
2013-11-03 08:44:00,53.5,42.0,30.12,NE,44,0.0,4.0,66,0.00,,,0.00,weatherlink.com 1.10,2013-11-03 14:44:00,
2013-11-03 08:59:00,55.5,41.0,30.12,South,172,8.0,10.0,59,0.00,,,0.00,weatherlink.com 1.10,2013-11-03 14:59:00,
2013-11-03 09:14:00,57.4,40.0,30.12,South,178,9.0,10.0,53,0.00,,,0.00,weatherlink.com 1.10,2013-11-03 15:14:00,
2013-11-03 09:29:00,58.5,41.0,30.11,SSE,157,5.0,11.0,53,0.00,,,0.00,weatherlink.com 1.10,2013-11-03 15:29:00,
2013-11-03 09:44:00,59.6,39.0,30.12,SSE,157,3.0,11.0,47,0.00,,,0.00,weatherlink.com 1.10,2013-11-03 15:44:00,
2013-11-03 09:59:00,61.0,40.0,30.12,SSE,155,6.0,7.0,47,0.00,,,0.00,weatherlink.com 1.10,2013-11-03 15:59:00,
2013-11-03 10:14:00,61.9,38.0,30.12,South,179,10.0,10.0,42,0.00,,,0.00,weatherlink.com 1.10,2013-11-03 16:14:00,
2013-11-03 10:29:00,62.6,40.0,30.12,SSE,167,5.0,10.0,43,0.00,,,0.00,weatherlink.com 1.10,2013-11-03 16:29:00,
2013-11-03 10:44:00,62.6,38.0,30.13,SSE,162,5.0,10.0,41,0.00,,,0.00,weatherlink.com 1.10,2013-11-03 16:44:00,
2013-11-03 10:59:00,63.2,38.0,30.11,SSE,166,5.0,11.0,39,0.00,,,0.00,weatherlink.com 1.10,2013-11-03 16:59:00,
2013-11-03 11:14:00,64.0,41.0,30.09,ESE,113,0.0,12.0,43,0.00,,,0.00,weatherlink.com 1.10,2013-11-03 17:14:00,
2013-11-03 11:29:00,65.0,39.0,30.08,South,178,9.0,12.0,39,0.00,,,0.00,weatherlink.com 1.10,2013-11-03 17:29:00,
2013-11-03 11:44:00,65.4,40.0,30.07,ESE,123,4.0,9.0,39,0.00,,,0.00,weatherlink.com 1.10,2013-11-03 17:44:00,
2013-11-03 11:59:00,65.8,39.0,30.06,SSE,157,5.0,12.0,37,0.00,,,0.00,weatherlink.com 1.10,2013-11-03 17:59:00,
2013-11-03 12:14:00,66.4,40.0,30.06,SSE,155,8.0,10.0,38,0.00,,,0.00,weatherlink.com 1.10,2013-11-03 18:14:00,
2013-11-03 12:29:00,66.5,40.0,30.05,South,173,3.0,11.0,38,0.00,,,0.00,weatherlink.com 1.10,2013-11-03 18:29:00,
2013-11-03 12:45:00,66.7,40.0,30.04,SSE,165,7.0,10.0,38,0.00,,,0.00,weatherlink.com 1.10,2013-11-03 18:45:00,
2013-11-03 13:00:00,65.7,41.0,30.03,South,169,3.0,9.0,40,0.00,,,0.00,weatherlink.com 1.10,2013-11-03 19:00:00,
2013-11-03 13:15:00,66.5,43.0,30.02,South,181,6.0,9.0,43,0.00,,,0.00,weatherlink.com 1.10,2013-11-03 19:15:00,
2013-11-03 13:30:00,68.2,42.0,30.01,South,171,4.0,10.0,39,0.00,,,0.00,weatherlink.com 1.10,2013-11-03 19:30:00,
2013-11-03 13:45:00,67.8,42.0,30.00,SSE,165,10.0,11.0,39,0.00,,,0.00,weatherlink.com 1.10,2013-11-03 19:45:00,
2013-11-03 14:00:00,68.1,41.0,29.99,South,184,6.0,11.0,37,0.00,,,0.00,weatherlink.com 1.10,2013-11-03 20:00:00,
2013-11-03 14:15:00,67.2,41.0,29.98,South,188,4.0,6.0,38,0.00,,,0.00,weatherlink.com 1.10,2013-11-03 20:15:00,
2013-11-03 14:30:00,67.8,40.0,29.98,SSE,167,9.0,10.0,37,0.00,,,0.00,weatherlink.com 1.10,2013-11-03 20:30:00,
2013-11-03 14:45:00,67.2,40.0,29.97,South,170,2.0,10.0,37,0.00,,,0.00,weatherlink.com 1.10,2013-11-03 20:45:00,
2013-11-03 15:00:00,67.5,40.0,29.97,South,182,8.0,11.0,37,0.00,,,0.00,weatherlink.com 1.10,2013-11-03 21:00:00,
2013-11-03 15:15:00,67.1,40.0,29.96,South,181,4.0,12.0,37,0.00,,,0.00,weatherlink.com 1.10,2013-11-03 21:15:00,
2013-11-03 15:30:00,67.0,41.0,29.95,South,176,4.0,11.0,39,0.00,,,0.00,weatherlink.com 1.10,2013-11-03 21:30:00,
2013-11-03 15:45:00,66.8,42.0,29.96,SSE,165,3.0,8.0,41,0.00,,,0.00,weatherlink.com 1.10,2013-11-03 21:45:00,
2013-11-03 16:00:00,66.7,42.0,29.95,SSE,163,5.0,10.0,41,0.00,,,0.00,weatherlink.com 1.10,2013-11-03 22:00:00,
2013-11-03 16:15:00,66.8,42.0,29.96,SSE,168,4.0,8.0,40,0.00,,,0.00,weatherlink.com 1.10,2013-11-03 22:15:00,
2013-11-03 16:30:00,66.5,41.0,29.97,South,177,4.0,9.0,40,0.00,,,0.00,weatherlink.com 1.10,2013-11-03 22:30:00,
2013-11-03 16:45:00,66.0,42.0,29.97,South,177,4.0,6.0,42,0.00,,,0.00,weatherlink.com 1.10,2013-11-03 22:45:00,
2013-11-03 17:00:00,65.6,42.0,29.97,South,177,5.0,6.0,42,0.00,,,0.00,weatherlink.com 1.10,2013-11-03 23:00:00,
2013-11-03 17:15:00,65.1,42.0,29.97,South,176,1.0,7.0,43,0.00,,,0.00,weatherlink.com 1.10,2013-11-03 23:15:00,
2013-11-03 17:30:00,64.7,42.0,29.97,South,176,3.0,4.0,43,0.00,,,0.00,weatherlink.com 1.10,2013-11-03 23:30:00,
2013-11-03 17:45:00,64.6,41.0,29.98,South,177,1.0,7.0,43,0.00,,,0.00,weatherlink.com 1.10,2013-11-03 23:45:00,
2013-11-03 18:00:00,64.3,41.0,29.98,South,176,3.0,6.0,43,0.00,,,0.00,weatherlink.com 1.10,2013-11-04 00:00:00,
2013-11-03 18:15:00,64.1,41.0,29.99,South,176,2.0,7.0,43,0.00,,,0.00,weatherlink.com 1.10,2013-11-04 00:15:00,
2013-11-03 18:30:00,63.4,43.0,29.98,South,176,2.0,7.0,47,0.00,,,0.00,weatherlink.com 1.10,2013-11-04 00:30:00,
2013-11-03 18:45:00,63.4,40.0,29.98,South,176,3.0,8.0,43,0.00,,,0.00,weatherlink.com 1.10,2013-11-04 00:45:00,
2013-11-03 19:00:00,62.6,42.0,29.99,South,176,5.0,7.0,47,0.00,,,0.00,weatherlink.com 1.10,2013-11-04 01:00:00,
2013-11-03 19:15:00,62.5,41.0,30.00,South,176,2.0,7.0,46,0.00,,,0.00,weatherlink.com 1.10,2013-11-04 01:15:00,
2013-11-03 19:30:00,62.5,41.0,30.00,South,176,2.0,6.0,46,0.00,,,0.00,weatherlink.com 1.10,2013-11-04 01:30:00,
2013-11-03 19:45:00,62.2,42.0,30.01,South,176,0.0,3.0,47,0.00,,,0.00,weatherlink.com 1.10,2013-11-04 01:45:00,
2013-11-03 20:00:00,62.0,41.0,30.00,South,176,0.0,4.0,47,0.00,,,0.00,weatherlink.com 1.10,2013-11-04 02:00:00,
2013-11-03 20:15:00,62.0,41.0,30.00,South,176,0.0,3.0,47,0.00,,,0.00,weatherlink.com 1.10,2013-11-04 02:15:00,
2013-11-03 20:30:00,61.8,42.0,29.98,South,176,1.0,4.0,48,0.00,,,0.00,weatherlink.com 1.10,2013-11-04 02:30:00,
2013-11-03 20:45:00,61.7,42.0,29.98,South,176,1.0,6.0,48,0.00,,,0.00,weatherlink.com 1.10,2013-11-04 02:45:00,
2013-11-03 21:00:00,61.5,41.0,29.96,South,176,3.0,5.0,48,0.00,,,0.00,weatherlink.com 1.10,2013-11-04 03:00:00,
2013-11-03 21:15:00,61.2,42.0,29.96,South,175,2.0,6.0,49,0.00,,,0.00,weatherlink.com 1.10,2013-11-04 03:15:00,
2013-11-03 21:30:00,61.0,41.0,29.96,South,175,4.0,6.0,49,0.00,,,0.00,weatherlink.com 1.10,2013-11-04 03:30:00,
2013-11-03 21:45:00,60.8,42.0,29.96,South,175,4.0,7.0,50,0.00,,,0.00,weatherlink.com 1.10,2013-11-04 03:45:00,
2013-11-03 22:00:00,61.2,41.0,29.95,South,174,3.0,9.0,48,0.00,,,0.00,weatherlink.com 1.10,2013-11-04 04:00:00,
2013-11-03 22:15:00,61.1,42.0,29.95,South,174,2.0,7.0,49,0.00,,,0.00,weatherlink.com 1.10,2013-11-04 04:15:00,
2013-11-03 22:30:00,61.4,43.0,29.95,South,174,4.0,9.0,52,0.00,,,0.00,weatherlink.com 1.10,2013-11-04 04:30:00,
2013-11-03 22:45:00,62.1,46.0,29.94,SSE,163,8.0,12.0,55,0.00,,,0.00,weatherlink.com 1.10,2013-11-04 04:45:00,
2013-11-03 23:00:00,62.2,47.0,29.91,South,172,8.0,18.0,58,0.00,,,0.00,weatherlink.com 1.10,2013-11-04 05:00:00,
2013-11-03 23:15:00,62.4,49.0,29.93,South,182,6.0,16.0,61,0.00,,,0.00,weatherlink.com 1.10,2013-11-04 05:15:00,
2013-11-03 23:30:00,62.1,50.0,29.94,South,173,13.0,16.0,65,0.00,,,0.00,weatherlink.com 1.10,2013-11-04 05:30:00,
2013-11-03 23:45:00,61.6,50.0,29.92,SE,146,15.0,21.0,67,0.00,,,0.00,weatherlink.com 1.10,2013-11-04 05:45:00,